sensor_id;sensor_type;location;lat;lon;timestamp;temperature;humidity
48998;DHT22;34807;51.456;7.244;2023-08-31T00:00:41;15.80;93.20
48998;DHT22;34807;51.456;7.244;2023-08-31T00:03:07;15.80;93.20
48998;DHT22;34807;51.456;7.244;2023-08-31T00:05:36;15.80;93.30
48998;DHT22;34807;51.456;7.244;2023-08-31T00:08:02;15.80;93.20
48998;DHT22;34807;51.456;7.244;2023-08-31T00:16:40;15.80;93.20
48998;DHT22;34807;51.456;7.244;2023-08-31T00:22:09;15.70;93.20
48998;DHT22;34807;51.456;7.244;2023-08-31T00:24:34;15.70;93.20
48998;DHT22;34807;51.456;7.244;2023-08-31T00:27:02;15.80;93.30
48998;DHT22;34807;51.456;7.244;2023-08-31T00:29:29;15.70;93.20
48998;DHT22;34807;51.456;7.244;2023-08-31T00:31:55;15.70;93.20
48998;DHT22;34807;51.456;7.244;2023-08-31T00:34:20;15.70;93.30
48998;DHT22;34807;51.456;7.244;2023-08-31T00:36:46;15.70;93.20
48998;DHT22;34807;51.456;7.244;2023-08-31T00:39:11;15.70;93.20
48998;DHT22;34807;51.456;7.244;2023-08-31T00:41:37;15.70;93.30
48998;DHT22;34807;51.456;7.244;2023-08-31T00:44:03;15.70;93.20
48998;DHT22;34807;51.456;7.244;2023-08-31T00:46:30;15.70;93.20
48998;DHT22;34807;51.456;7.244;2023-08-31T00:48:56;15.70;93.20
48998;DHT22;34807;51.456;7.244;2023-08-31T00:51:23;15.70;93.20
48998;DHT22;34807;51.456;7.244;2023-08-31T00:53:49;15.70;93.20
48998;DHT22;34807;51.456;7.244;2023-08-31T00:56:16;15.70;93.20
48998;DHT22;34807;51.456;7.244;2023-08-31T00:58:42;15.60;93.20
48998;DHT22;34807;51.456;7.244;2023-08-31T01:03:49;15.60;93.30
48998;DHT22;34807;51.456;7.244;2023-08-31T01:08:56;15.60;93.30
48998;DHT22;34807;51.456;7.244;2023-08-31T01:11:31;15.60;93.20
48998;DHT22;34807;51.456;7.244;2023-08-31T01:14:06;15.60;93.30
48998;DHT22;34807;51.456;7.244;2023-08-31T01:16:33;15.60;93.20
48998;DHT22;34807;51.456;7.244;2023-08-31T01:19:00;15.60;93.20
48998;DHT22;34807;51.456;7.244;2023-08-31T01:21:37;15.60;93.30
48998;DHT22;34807;51.456;7.244;2023-08-31T01:24:03;15.50;93.30
48998;DHT22;34807;51.456;7.244;2023-08-31T01:26:29;15.50;93.20
48998;DHT22;34807;51.456;7.244;2023-08-31T01:28:55;15.50;93.20
48998;DHT22;34807;51.456;7.244;2023-08-31T01:31:21;15.50;93.30
48998;DHT22;34807;51.456;7.244;2023-08-31T01:33:47;15.50;93.20
48998;DHT22;34807;51.456;7.244;2023-08-31T01:36:17;15.50;93.20
48998;DHT22;34807;51.456;7.244;2023-08-31T01:38:47;15.50;93.20
48998;DHT22;34807;51.456;7.244;2023-08-31T01:41:14;15.50;93.20
48998;DHT22;34807;51.456;7.244;2023-08-31T01:43:43;15.50;93.20
48998;DHT22;34807;51.456;7.244;2023-08-31T01:46:09;15.50;93.20
48998;DHT22;34807;51.456;7.244;2023-08-31T01:48:38;15.40;93.20
48998;DHT22;34807;51.456;7.244;2023-08-31T01:51:05;15.40;93.20
48998;DHT22;34807;51.456;7.244;2023-08-31T01:53:31;15.40;93.20
48998;DHT22;34807;51.456;7.244;2023-08-31T01:55:56;15.40;93.20
48998;DHT22;34807;51.456;7.244;2023-08-31T01:58:22;15.40;93.20
48998;DHT22;34807;51.456;7.244;2023-08-31T02:00:48;15.40;93.20
48998;DHT22;34807;51.456;7.244;2023-08-31T02:03:13;15.40;93.20
48998;DHT22;34807;51.456;7.244;2023-08-31T02:05:39;15.40;93.20
48998;DHT22;34807;51.456;7.244;2023-08-31T02:08:04;15.40;93.20
48998;DHT22;34807;51.456;7.244;2023-08-31T02:10:30;15.40;93.10
48998;DHT22;34807;51.456;7.244;2023-08-31T02:12:55;15.30;93.20
48998;DHT22;34807;51.456;7.244;2023-08-31T02:15:21;15.30;93.20
48998;DHT22;34807;51.456;7.244;2023-08-31T02:17:46;15.40;93.20
48998;DHT22;34807;51.456;7.244;2023-08-31T02:20:12;15.30;93.20
48998;DHT22;34807;51.456;7.244;2023-08-31T02:22:39;15.30;93.20
48998;DHT22;34807;51.456;7.244;2023-08-31T02:25:04;15.30;93.40
48998;DHT22;34807;51.456;7.244;2023-08-31T02:27:30;15.30;93.20
48998;DHT22;34807;51.456;7.244;2023-08-31T02:29:56;15.30;93.20
48998;DHT22;34807;51.456;7.244;2023-08-31T02:32:21;15.30;93.20
48998;DHT22;34807;51.456;7.244;2023-08-31T02:34:47;15.20;93.30
48998;DHT22;34807;51.456;7.244;2023-08-31T02:37:12;15.20;93.10
48998;DHT22;34807;51.456;7.244;2023-08-31T02:39:38;15.30;93.10
48998;DHT22;34807;51.456;7.244;2023-08-31T02:42:05;15.30;93.10
48998;DHT22;34807;51.456;7.244;2023-08-31T02:44:31;15.20;93.10
48998;DHT22;34807;51.456;7.244;2023-08-31T02:46:56;15.20;93.10
48998;DHT22;34807;51.456;7.244;2023-08-31T02:49:22;15.20;93.10
48998;DHT22;34807;51.456;7.244;2023-08-31T02:51:48;15.20;93.10
48998;DHT22;34807;51.456;7.244;2023-08-31T02:54:14;15.20;93.20
48998;DHT22;34807;51.456;7.244;2023-08-31T02:56:40;15.20;93.10
48998;DHT22;34807;51.456;7.244;2023-08-31T02:59:05;15.20;93.10
48998;DHT22;34807;51.456;7.244;2023-08-31T03:01:31;15.20;93.10
48998;DHT22;34807;51.456;7.244;2023-08-31T03:03:56;15.10;93.10
48998;DHT22;34807;51.456;7.244;2023-08-31T03:06:22;15.10;93.10
48998;DHT22;34807;51.456;7.244;2023-08-31T03:08:47;15.10;93.10
48998;DHT22;34807;51.456;7.244;2023-08-31T03:11:13;15.10;93.10
48998;DHT22;34807;51.456;7.244;2023-08-31T03:13:41;15.10;93.10
48998;DHT22;34807;51.456;7.244;2023-08-31T03:16:07;15.10;93.10
48998;DHT22;34807;51.456;7.244;2023-08-31T03:18:33;15.10;93.10
48998;DHT22;34807;51.456;7.244;2023-08-31T03:20:58;15.00;93.00
48998;DHT22;34807;51.456;7.244;2023-08-31T03:23:28;15.10;93.10
48998;DHT22;34807;51.456;7.244;2023-08-31T03:25:54;15.00;93.00
48998;DHT22;34807;51.456;7.244;2023-08-31T03:28:20;15.00;93.10
48998;DHT22;34807;51.456;7.244;2023-08-31T03:30:45;15.00;93.10
48998;DHT22;34807;51.456;7.244;2023-08-31T03:33:11;15.00;93.00
48998;DHT22;34807;51.456;7.244;2023-08-31T03:35:37;15.00;93.00
48998;DHT22;34807;51.456;7.244;2023-08-31T03:38:03;15.00;93.10
48998;DHT22;34807;51.456;7.244;2023-08-31T03:40:29;15.00;93.00
48998;DHT22;34807;51.456;7.244;2023-08-31T03:42:54;15.00;93.00
48998;DHT22;34807;51.456;7.244;2023-08-31T03:45:20;15.00;93.00
48998;DHT22;34807;51.456;7.244;2023-08-31T03:47:45;15.00;93.00
48998;DHT22;34807;51.456;7.244;2023-08-31T03:50:11;15.00;93.00
48998;DHT22;34807;51.456;7.244;2023-08-31T03:52:36;15.00;93.00
48998;DHT22;34807;51.456;7.244;2023-08-31T03:55:02;15.00;93.00
48998;DHT22;34807;51.456;7.244;2023-08-31T03:57:28;15.00;93.00
48998;DHT22;34807;51.456;7.244;2023-08-31T03:59:53;15.00;93.00
48998;DHT22;34807;51.456;7.244;2023-08-31T04:02:19;15.00;93.00
48998;DHT22;34807;51.456;7.244;2023-08-31T04:04:44;14.90;93.00
48998;DHT22;34807;51.456;7.244;2023-08-31T04:07:10;14.90;93.00
48998;DHT22;34807;51.456;7.244;2023-08-31T04:09:35;15.00;93.00
48998;DHT22;34807;51.456;7.244;2023-08-31T04:12:01;14.90;93.00
48998;DHT22;34807;51.456;7.244;2023-08-31T04:14:26;14.90;93.00
48998;DHT22;34807;51.456;7.244;2023-08-31T04:16:53;15.00;93.00
48998;DHT22;34807;51.456;7.244;2023-08-31T04:19:18;14.90;93.00
48998;DHT22;34807;51.456;7.244;2023-08-31T04:21:44;14.90;93.00
48998;DHT22;34807;51.456;7.244;2023-08-31T04:24:09;14.90;93.00
48998;DHT22;34807;51.456;7.244;2023-08-31T04:26:35;14.90;93.00
48998;DHT22;34807;51.456;7.244;2023-08-31T04:29:01;14.90;93.00
48998;DHT22;34807;51.456;7.244;2023-08-31T04:31:28;14.90;93.00
48998;DHT22;34807;51.456;7.244;2023-08-31T04:33:54;14.90;93.00
48998;DHT22;34807;51.456;7.244;2023-08-31T04:36:21;14.90;93.10
48998;DHT22;34807;51.456;7.244;2023-08-31T04:38:47;14.80;93.00
48998;DHT22;34807;51.456;7.244;2023-08-31T04:41:14;14.90;93.00
48998;DHT22;34807;51.456;7.244;2023-08-31T04:43:39;14.80;93.00
48998;DHT22;34807;51.456;7.244;2023-08-31T04:46:05;14.80;93.00
48998;DHT22;34807;51.456;7.244;2023-08-31T04:48:31;14.80;93.10
48998;DHT22;34807;51.456;7.244;2023-08-31T04:50:56;14.90;93.10
48998;DHT22;34807;51.456;7.244;2023-08-31T04:53:22;14.80;93.00
48998;DHT22;34807;51.456;7.244;2023-08-31T04:55:48;14.80;93.00
48998;DHT22;34807;51.456;7.244;2023-08-31T04:58:13;14.80;93.00
48998;DHT22;34807;51.456;7.244;2023-08-31T05:00:39;14.80;93.00
48998;DHT22;34807;51.456;7.244;2023-08-31T05:03:04;14.80;93.10
48998;DHT22;34807;51.456;7.244;2023-08-31T05:05:30;14.80;93.00
48998;DHT22;34807;51.456;7.244;2023-08-31T05:07:55;14.80;93.00
48998;DHT22;34807;51.456;7.244;2023-08-31T05:10:21;14.80;93.00
48998;DHT22;34807;51.456;7.244;2023-08-31T05:12:46;14.80;93.10
48998;DHT22;34807;51.456;7.244;2023-08-31T05:15:12;14.80;93.30
48998;DHT22;34807;51.456;7.244;2023-08-31T05:17:37;14.80;93.00
48998;DHT22;34807;51.456;7.244;2023-08-31T05:20:03;14.80;93.10
48998;DHT22;34807;51.456;7.244;2023-08-31T05:22:29;14.80;93.10
48998;DHT22;34807;51.456;7.244;2023-08-31T05:24:55;14.80;93.00
48998;DHT22;34807;51.456;7.244;2023-08-31T05:27:21;14.80;93.00
48998;DHT22;34807;51.456;7.244;2023-08-31T05:29:46;14.80;93.00
48998;DHT22;34807;51.456;7.244;2023-08-31T05:32:12;14.80;93.00
48998;DHT22;34807;51.456;7.244;2023-08-31T05:34:37;14.80;93.00
48998;DHT22;34807;51.456;7.244;2023-08-31T05:37:04;14.80;93.10
48998;DHT22;34807;51.456;7.244;2023-08-31T05:39:30;14.80;93.00
48998;DHT22;34807;51.456;7.244;2023-08-31T05:41:56;14.80;93.00
48998;DHT22;34807;51.456;7.244;2023-08-31T05:44:21;14.80;93.00
48998;DHT22;34807;51.456;7.244;2023-08-31T05:46:47;14.70;93.00
48998;DHT22;34807;51.456;7.244;2023-08-31T05:49:12;14.80;93.00
48998;DHT22;34807;51.456;7.244;2023-08-31T05:51:38;14.70;93.00
48998;DHT22;34807;51.456;7.244;2023-08-31T05:54:03;14.70;93.10
48998;DHT22;34807;51.456;7.244;2023-08-31T05:56:29;14.70;93.10
48998;DHT22;34807;51.456;7.244;2023-08-31T05:58:54;14.70;93.10
48998;DHT22;34807;51.456;7.244;2023-08-31T06:01:21;14.70;93.10
48998;DHT22;34807;51.456;7.244;2023-08-31T06:03:49;14.70;93.10
48998;DHT22;34807;51.456;7.244;2023-08-31T06:06:15;14.70;93.10
48998;DHT22;34807;51.456;7.244;2023-08-31T06:08:40;14.70;93.10
48998;DHT22;34807;51.456;7.244;2023-08-31T06:11:08;14.80;93.10
48998;DHT22;34807;51.456;7.244;2023-08-31T06:13:34;14.80;93.10
48998;DHT22;34807;51.456;7.244;2023-08-31T06:15:59;14.80;93.00
48998;DHT22;34807;51.456;7.244;2023-08-31T06:18:25;14.80;93.00
48998;DHT22;34807;51.456;7.244;2023-08-31T06:20:51;14.80;93.10
48998;DHT22;34807;51.456;7.244;2023-08-31T06:23:16;14.90;93.10
48998;DHT22;34807;51.456;7.244;2023-08-31T06:25:42;14.80;93.10
48998;DHT22;34807;51.456;7.244;2023-08-31T06:28:07;14.90;93.00
48998;DHT22;34807;51.456;7.244;2023-08-31T06:30:36;14.90;93.00
48998;DHT22;34807;51.456;7.244;2023-08-31T06:33:02;14.90;93.00
48998;DHT22;34807;51.456;7.244;2023-08-31T06:35:27;14.90;93.00
48998;DHT22;34807;51.456;7.244;2023-08-31T06:37:53;14.90;93.00
48998;DHT22;34807;51.456;7.244;2023-08-31T06:40:20;14.90;93.00
48998;DHT22;34807;51.456;7.244;2023-08-31T06:42:46;15.00;93.10
48998;DHT22;34807;51.456;7.244;2023-08-31T06:45:11;15.00;93.00
48998;DHT22;34807;51.456;7.244;2023-08-31T06:47:37;15.00;93.00
48998;DHT22;34807;51.456;7.244;2023-08-31T06:50:02;15.00;93.00
48998;DHT22;34807;51.456;7.244;2023-08-31T06:52:28;15.00;93.00
48998;DHT22;34807;51.456;7.244;2023-08-31T06:54:54;15.00;93.00
48998;DHT22;34807;51.456;7.244;2023-08-31T06:57:24;15.00;93.00
48998;DHT22;34807;51.456;7.244;2023-08-31T06:59:49;15.00;93.10
48998;DHT22;34807;51.456;7.244;2023-08-31T07:02:15;15.00;93.00
48998;DHT22;34807;51.456;7.244;2023-08-31T07:04:41;15.00;93.00
48998;DHT22;34807;51.456;7.244;2023-08-31T07:07:07;15.00;93.00
48998;DHT22;34807;51.456;7.244;2023-08-31T07:09:34;15.10;93.10
48998;DHT22;34807;51.456;7.244;2023-08-31T07:11:59;15.10;93.10
48998;DHT22;34807;51.456;7.244;2023-08-31T07:14:26;15.10;93.00
48998;DHT22;34807;51.456;7.244;2023-08-31T07:16:52;15.10;93.00
48998;DHT22;34807;51.456;7.244;2023-08-31T07:19:17;15.10;93.00
48998;DHT22;34807;51.456;7.244;2023-08-31T07:21:43;15.10;93.00
48998;DHT22;34807;51.456;7.244;2023-08-31T07:24:08;15.10;93.00
48998;DHT22;34807;51.456;7.244;2023-08-31T07:26:34;15.10;93.10
48998;DHT22;34807;51.456;7.244;2023-08-31T07:29:00;15.10;93.00
48998;DHT22;34807;51.456;7.244;2023-08-31T07:31:26;15.20;93.00
48998;DHT22;34807;51.456;7.244;2023-08-31T07:33:52;15.10;93.20
48998;DHT22;34807;51.456;7.244;2023-08-31T07:36:17;15.20;93.20
48998;DHT22;34807;51.456;7.244;2023-08-31T07:38:43;15.20;93.00
48998;DHT22;34807;51.456;7.244;2023-08-31T07:41:08;15.30;93.00
48998;DHT22;34807;51.456;7.244;2023-08-31T07:43:34;15.30;92.90
48998;DHT22;34807;51.456;7.244;2023-08-31T07:45:59;15.30;92.90
48998;DHT22;34807;51.456;7.244;2023-08-31T07:48:25;15.40;92.80
48998;DHT22;34807;51.456;7.244;2023-08-31T07:50:51;15.40;92.80
48998;DHT22;34807;51.456;7.244;2023-08-31T07:53:16;15.50;92.90
48998;DHT22;34807;51.456;7.244;2023-08-31T07:55:50;15.40;92.80
48998;DHT22;34807;51.456;7.244;2023-08-31T07:58:15;15.50;92.90
48998;DHT22;34807;51.456;7.244;2023-08-31T08:00:41;15.50;92.80
48998;DHT22;34807;51.456;7.244;2023-08-31T08:03:06;15.50;93.00
48998;DHT22;34807;51.456;7.244;2023-08-31T08:05:32;15.50;92.90
48998;DHT22;34807;51.456;7.244;2023-08-31T08:07:58;15.50;92.80
48998;DHT22;34807;51.456;7.244;2023-08-31T08:10:23;15.60;92.80
48998;DHT22;34807;51.456;7.244;2023-08-31T08:12:49;15.60;92.80
48998;DHT22;34807;51.456;7.244;2023-08-31T08:15:14;15.60;92.80
48998;DHT22;34807;51.456;7.244;2023-08-31T08:17:40;15.70;92.70
48998;DHT22;34807;51.456;7.244;2023-08-31T08:20:06;15.70;92.80
48998;DHT22;34807;51.456;7.244;2023-08-31T08:22:32;15.70;92.60
48998;DHT22;34807;51.456;7.244;2023-08-31T08:24:57;15.70;92.60
48998;DHT22;34807;51.456;7.244;2023-08-31T08:27:23;15.70;92.70
48998;DHT22;34807;51.456;7.244;2023-08-31T08:29:48;15.70;92.80
48998;DHT22;34807;51.456;7.244;2023-08-31T08:32:15;15.80;92.60
48998;DHT22;34807;51.456;7.244;2023-08-31T08:34:40;15.80;92.70
48998;DHT22;34807;51.456;7.244;2023-08-31T08:37:06;15.80;92.50
48998;DHT22;34807;51.456;7.244;2023-08-31T08:39:31;15.90;92.60
48998;DHT22;34807;51.456;7.244;2023-08-31T08:42:00;15.90;92.70
48998;DHT22;34807;51.456;7.244;2023-08-31T08:44:31;15.90;92.70
48998;DHT22;34807;51.456;7.244;2023-08-31T08:46:57;15.90;92.60
48998;DHT22;34807;51.456;7.244;2023-08-31T08:49:23;16.00;92.70
48998;DHT22;34807;51.456;7.244;2023-08-31T08:51:49;16.00;92.80
48998;DHT22;34807;51.456;7.244;2023-08-31T08:54:16;16.00;92.80
48998;DHT22;34807;51.456;7.244;2023-08-31T08:56:42;16.00;92.60
48998;DHT22;34807;51.456;7.244;2023-08-31T08:59:08;16.00;92.50
48998;DHT22;34807;51.456;7.244;2023-08-31T09:01:38;16.10;92.50
48998;DHT22;34807;51.456;7.244;2023-08-31T09:04:03;16.10;92.50
48998;DHT22;34807;51.456;7.244;2023-08-31T09:06:29;16.20;92.70
48998;DHT22;34807;51.456;7.244;2023-08-31T09:08:55;16.20;92.60
48998;DHT22;34807;51.456;7.244;2023-08-31T09:11:22;16.20;92.20
48998;DHT22;34807;51.456;7.244;2023-08-31T09:13:48;16.30;92.50
48998;DHT22;34807;51.456;7.244;2023-08-31T09:16:26;16.30;92.40
48998;DHT22;34807;51.456;7.244;2023-08-31T09:18:53;16.30;92.60
48998;DHT22;34807;51.456;7.244;2023-08-31T09:21:19;16.40;92.80
48998;DHT22;34807;51.456;7.244;2023-08-31T09:23:47;16.50;92.60
48998;DHT22;34807;51.456;7.244;2023-08-31T09:26:13;16.50;92.60
48998;DHT22;34807;51.456;7.244;2023-08-31T09:28:40;16.60;93.10
48998;DHT22;34807;51.456;7.244;2023-08-31T09:31:07;16.60;93.30
48998;DHT22;34807;51.456;7.244;2023-08-31T09:33:33;16.70;92.90
48998;DHT22;34807;51.456;7.244;2023-08-31T09:35:59;16.80;92.90
48998;DHT22;34807;51.456;7.244;2023-08-31T09:38:26;16.80;92.70
48998;DHT22;34807;51.456;7.244;2023-08-31T09:40:52;16.90;92.70
48998;DHT22;34807;51.456;7.244;2023-08-31T09:43:28;16.90;92.40
48998;DHT22;34807;51.456;7.244;2023-08-31T09:45:53;17.00;92.30
48998;DHT22;34807;51.456;7.244;2023-08-31T09:48:19;17.10;92.20
48998;DHT22;34807;51.456;7.244;2023-08-31T09:50:45;17.20;92.10
48998;DHT22;34807;51.456;7.244;2023-08-31T09:53:11;17.20;92.50
48998;DHT22;34807;51.456;7.244;2023-08-31T09:55:38;17.30;92.20
48998;DHT22;34807;51.456;7.244;2023-08-31T09:58:04;17.30;92.10
48998;DHT22;34807;51.456;7.244;2023-08-31T10:00:31;17.40;92.10
48998;DHT22;34807;51.456;7.244;2023-08-31T10:02:58;17.40;92.00
48998;DHT22;34807;51.456;7.244;2023-08-31T10:05:25;17.40;91.90
48998;DHT22;34807;51.456;7.244;2023-08-31T10:07:51;17.50;91.80
48998;DHT22;34807;51.456;7.244;2023-08-31T10:10:17;17.50;91.70
48998;DHT22;34807;51.456;7.244;2023-08-31T10:12:44;17.60;91.60
48998;DHT22;34807;51.456;7.244;2023-08-31T10:15:11;17.60;91.60
48998;DHT22;34807;51.456;7.244;2023-08-31T10:17:38;17.70;91.60
48998;DHT22;34807;51.456;7.244;2023-08-31T10:20:05;17.70;91.60
48998;DHT22;34807;51.456;7.244;2023-08-31T10:22:31;17.70;91.60
48998;DHT22;34807;51.456;7.244;2023-08-31T10:27:22;17.70;91.40
48998;DHT22;34807;51.456;7.244;2023-08-31T10:29:47;17.70;91.40
48998;DHT22;34807;51.456;7.244;2023-08-31T10:32:19;17.70;91.30
48998;DHT22;34807;51.456;7.244;2023-08-31T10:35:03;17.80;91.40
48998;DHT22;34807;51.456;7.244;2023-08-31T10:37:29;17.80;91.30
48998;DHT22;34807;51.456;7.244;2023-08-31T10:40:16;17.80;91.10
48998;DHT22;34807;51.456;7.244;2023-08-31T10:42:41;17.90;91.40
48998;DHT22;34807;51.456;7.244;2023-08-31T10:45:07;18.00;91.20
48998;DHT22;34807;51.456;7.244;2023-08-31T10:47:42;17.90;91.10
48998;DHT22;34807;51.456;7.244;2023-08-31T10:52:42;18.10;91.30
48998;DHT22;34807;51.456;7.244;2023-08-31T10:55:09;18.10;91.40
48998;DHT22;34807;51.456;7.244;2023-08-31T10:57:35;18.20;90.90
48998;DHT22;34807;51.456;7.244;2023-08-31T11:00:00;18.30;91.20
48998;DHT22;34807;51.456;7.244;2023-08-31T11:02:26;18.30;91.40
48998;DHT22;34807;51.456;7.244;2023-08-31T11:04:54;18.30;91.40
48998;DHT22;34807;51.456;7.244;2023-08-31T11:07:23;18.40;91.50
48998;DHT22;34807;51.456;7.244;2023-08-31T11:09:49;18.50;90.90
48998;DHT22;34807;51.456;7.244;2023-08-31T11:12:14;18.60;91.30
48998;DHT22;34807;51.456;7.244;2023-08-31T11:14:40;18.60;90.80
48998;DHT22;34807;51.456;7.244;2023-08-31T11:17:06;18.70;91.60
48998;DHT22;34807;51.456;7.244;2023-08-31T11:19:32;18.80;91.20
48998;DHT22;34807;51.456;7.244;2023-08-31T11:22:02;18.80;91.30
48998;DHT22;34807;51.456;7.244;2023-08-31T11:24:29;18.90;91.30
48998;DHT22;34807;51.456;7.244;2023-08-31T11:26:54;19.00;91.30
48998;DHT22;34807;51.456;7.244;2023-08-31T11:29:20;19.10;91.20
48998;DHT22;34807;51.456;7.244;2023-08-31T11:31:46;19.20;90.70
48998;DHT22;34807;51.456;7.244;2023-08-31T11:34:12;19.20;91.00
48998;DHT22;34807;51.456;7.244;2023-08-31T11:36:38;19.30;91.20
48998;DHT22;34807;51.456;7.244;2023-08-31T11:39:04;19.40;90.70
48998;DHT22;34807;51.456;7.244;2023-08-31T11:41:32;19.50;91.10
48998;DHT22;34807;51.456;7.244;2023-08-31T11:43:59;19.50;91.40
48998;DHT22;34807;51.456;7.244;2023-08-31T11:46:24;19.50;90.60
48998;DHT22;34807;51.456;7.244;2023-08-31T11:48:50;19.70;91.00
48998;DHT22;34807;51.456;7.244;2023-08-31T11:51:16;19.70;90.70
48998;DHT22;34807;51.456;7.244;2023-08-31T11:53:41;19.70;90.10
48998;DHT22;34807;51.456;7.244;2023-08-31T11:56:07;19.70;91.10
48998;DHT22;34807;51.456;7.244;2023-08-31T11:58:33;19.60;90.60
48998;DHT22;34807;51.456;7.244;2023-08-31T12:01:04;19.60;90.70
48998;DHT22;34807;51.456;7.244;2023-08-31T12:03:41;19.60;90.70
48998;DHT22;34807;51.456;7.244;2023-08-31T12:06:07;19.50;90.70
48998;DHT22;34807;51.456;7.244;2023-08-31T12:08:33;19.50;90.60
48998;DHT22;34807;51.456;7.244;2023-08-31T12:11:00;19.60;90.90
48998;DHT22;34807;51.456;7.244;2023-08-31T12:13:25;19.60;90.70
48998;DHT22;34807;51.456;7.244;2023-08-31T12:15:54;19.70;90.40
48998;DHT22;34807;51.456;7.244;2023-08-31T12:18:20;19.70;90.20
48998;DHT22;34807;51.456;7.244;2023-08-31T12:20:46;19.70;90.70
48998;DHT22;34807;51.456;7.244;2023-08-31T12:23:11;19.70;90.80
48998;DHT22;34807;51.456;7.244;2023-08-31T12:25:45;19.70;90.30
48998;DHT22;34807;51.456;7.244;2023-08-31T12:28:10;19.60;90.60
48998;DHT22;34807;51.456;7.244;2023-08-31T12:30:36;19.60;90.60
48998;DHT22;34807;51.456;7.244;2023-08-31T12:33:01;19.60;90.40
48998;DHT22;34807;51.456;7.244;2023-08-31T12:35:27;19.60;90.70
48998;DHT22;34807;51.456;7.244;2023-08-31T12:37:54;19.70;90.90
48998;DHT22;34807;51.456;7.244;2023-08-31T12:40:19;19.70;90.80
48998;DHT22;34807;51.456;7.244;2023-08-31T12:42:45;19.80;90.70
48998;DHT22;34807;51.456;7.244;2023-08-31T12:45:11;19.90;90.40
48998;DHT22;34807;51.456;7.244;2023-08-31T12:47:36;19.90;90.60
48998;DHT22;34807;51.456;7.244;2023-08-31T12:50:02;20.00;90.30
48998;DHT22;34807;51.456;7.244;2023-08-31T12:52:28;20.00;90.60
48998;DHT22;34807;51.456;7.244;2023-08-31T12:54:54;20.00;90.10
48998;DHT22;34807;51.456;7.244;2023-08-31T12:57:19;20.00;89.90
48998;DHT22;34807;51.456;7.244;2023-08-31T12:59:44;20.00;89.30
48998;DHT22;34807;51.456;7.244;2023-08-31T13:02:10;20.00;90.00
48998;DHT22;34807;51.456;7.244;2023-08-31T13:04:37;20.00;90.40
48998;DHT22;34807;51.456;7.244;2023-08-31T13:07:03;20.00;90.10
48998;DHT22;34807;51.456;7.244;2023-08-31T13:09:29;20.10;90.50
48998;DHT22;34807;51.456;7.244;2023-08-31T13:11:54;20.20;90.30
48998;DHT22;34807;51.456;7.244;2023-08-31T13:14:20;20.20;90.40
48998;DHT22;34807;51.456;7.244;2023-08-31T13:16:45;20.30;90.40
48998;DHT22;34807;51.456;7.244;2023-08-31T13:19:11;20.30;89.80
48998;DHT22;34807;51.456;7.244;2023-08-31T13:21:36;20.40;89.40
48998;DHT22;34807;51.456;7.244;2023-08-31T13:24:02;20.40;89.80
48998;DHT22;34807;51.456;7.244;2023-08-31T13:26:29;20.40;90.20
48998;DHT22;34807;51.456;7.244;2023-08-31T13:28:54;20.50;90.00
48998;DHT22;34807;51.456;7.244;2023-08-31T13:31:20;20.50;89.90
48998;DHT22;34807;51.456;7.244;2023-08-31T13:33:46;20.50;90.20
48998;DHT22;34807;51.456;7.244;2023-08-31T13:36:11;20.50;89.50
48998;DHT22;34807;51.456;7.244;2023-08-31T13:38:37;20.50;89.80
48998;DHT22;34807;51.456;7.244;2023-08-31T13:41:02;20.50;90.00
48998;DHT22;34807;51.456;7.244;2023-08-31T13:43:28;20.60;90.10
48998;DHT22;34807;51.456;7.244;2023-08-31T13:45:54;20.70;89.50
48998;DHT22;34807;51.456;7.244;2023-08-31T13:48:20;20.70;89.00
48998;DHT22;34807;51.456;7.244;2023-08-31T13:50:47;20.80;89.00
48998;DHT22;34807;51.456;7.244;2023-08-31T13:53:13;20.90;88.60
48998;DHT22;34807;51.456;7.244;2023-08-31T13:55:38;20.90;88.00
48998;DHT22;34807;51.456;7.244;2023-08-31T13:58:04;21.10;88.60
48998;DHT22;34807;51.456;7.244;2023-08-31T14:00:33;21.10;88.30
48998;DHT22;34807;51.456;7.244;2023-08-31T14:03:00;21.10;87.70
48998;DHT22;34807;51.456;7.244;2023-08-31T14:05:29;21.10;87.10
48998;DHT22;34807;51.456;7.244;2023-08-31T14:07:55;21.10;88.10
48998;DHT22;34807;51.456;7.244;2023-08-31T14:10:20;21.20;88.30
48998;DHT22;34807;51.456;7.244;2023-08-31T14:12:46;21.30;88.30
48998;DHT22;34807;51.456;7.244;2023-08-31T14:15:12;21.30;87.80
48998;DHT22;34807;51.456;7.244;2023-08-31T14:17:37;21.30;87.50
48998;DHT22;34807;51.456;7.244;2023-08-31T14:20:03;21.40;88.50
48998;DHT22;34807;51.456;7.244;2023-08-31T14:22:31;21.30;87.10
48998;DHT22;34807;51.456;7.244;2023-08-31T14:24:57;21.20;85.70
48998;DHT22;34807;51.456;7.244;2023-08-31T14:27:22;21.20;86.50
48998;DHT22;34807;51.456;7.244;2023-08-31T14:29:48;21.20;88.00
48998;DHT22;34807;51.456;7.244;2023-08-31T14:32:14;21.10;88.60
48998;DHT22;34807;51.456;7.244;2023-08-31T14:34:39;21.10;88.70
48998;DHT22;34807;51.456;7.244;2023-08-31T14:37:06;21.00;88.20
48998;DHT22;34807;51.456;7.244;2023-08-31T14:39:32;20.90;89.40
48998;DHT22;34807;51.456;7.244;2023-08-31T14:41:57;20.90;89.30
48998;DHT22;34807;51.456;7.244;2023-08-31T14:44:23;20.90;89.10
48998;DHT22;34807;51.456;7.244;2023-08-31T14:46:49;20.80;89.60
48998;DHT22;34807;51.456;7.244;2023-08-31T14:49:14;20.70;89.50
48998;DHT22;34807;51.456;7.244;2023-08-31T14:51:40;20.60;89.00
48998;DHT22;34807;51.456;7.244;2023-08-31T14:54:05;20.50;89.60
48998;DHT22;34807;51.456;7.244;2023-08-31T14:56:31;20.40;90.10
48998;DHT22;34807;51.456;7.244;2023-08-31T14:58:57;20.30;90.10
48998;DHT22;34807;51.456;7.244;2023-08-31T15:01:22;20.20;90.20
48998;DHT22;34807;51.456;7.244;2023-08-31T15:03:49;20.20;90.30
48998;DHT22;34807;51.456;7.244;2023-08-31T15:06:15;20.10;90.50
48998;DHT22;34807;51.456;7.244;2023-08-31T15:08:41;20.10;90.60
48998;DHT22;34807;51.456;7.244;2023-08-31T15:11:07;20.00;90.40
48998;DHT22;34807;51.456;7.244;2023-08-31T15:13:32;20.00;90.50
48998;DHT22;34807;51.456;7.244;2023-08-31T15:15:58;19.90;90.50
48998;DHT22;34807;51.456;7.244;2023-08-31T15:18:26;19.80;90.50
48998;DHT22;34807;51.456;7.244;2023-08-31T15:20:53;19.80;90.60
48998;DHT22;34807;51.456;7.244;2023-08-31T15:23:18;19.70;90.70
48998;DHT22;34807;51.456;7.244;2023-08-31T15:25:44;19.70;90.70
48998;DHT22;34807;51.456;7.244;2023-08-31T15:28:09;19.60;90.70
48998;DHT22;34807;51.456;7.244;2023-08-31T15:30:35;19.60;90.70
48998;DHT22;34807;51.456;7.244;2023-08-31T15:33:01;19.60;90.70
48998;DHT22;34807;51.456;7.244;2023-08-31T15:35:28;19.50;90.80
48998;DHT22;34807;51.456;7.244;2023-08-31T15:37:53;19.50;90.80
48998;DHT22;34807;51.456;7.244;2023-08-31T15:40:19;19.50;90.80
48998;DHT22;34807;51.456;7.244;2023-08-31T15:42:44;19.50;90.80